sensor_id;sensor_type;location;lat;lon;timestamp;P1;durP1;ratioP1;P2;durP2;ratioP2
25780;SDS011;13626;48.128;11.628;2023-07-08T00:00:22;15.07;;;8.32;;
25780;SDS011;13626;48.128;11.628;2023-07-08T00:02:49;12.32;;;7.80;;
25780;SDS011;13626;48.128;11.628;2023-07-08T00:05:17;12.55;;;7.85;;
25780;SDS011;13626;48.128;11.628;2023-07-08T00:07:45;12.73;;;8.23;;
25780;SDS011;13626;48.128;11.628;2023-07-08T00:12:40;14.98;;;8.23;;
25780;SDS011;13626;48.128;11.628;2023-07-08T00:15:08;11.52;;;7.20;;
25780;SDS011;13626;48.128;11.628;2023-07-08T00:17:35;9.63;;;6.75;;
25780;SDS011;13626;48.128;11.628;2023-07-08T00:20:17;10.82;;;7.38;;
25780;SDS011;13626;48.128;11.628;2023-07-08T00:22:47;13.30;;;8.32;;
25780;SDS011;13626;48.128;11.628;2023-07-08T00:25:16;12.68;;;7.45;;
25780;SDS011;13626;48.128;11.628;2023-07-08T00:27:46;13.32;;;7.90;;
25780;SDS011;13626;48.128;11.628;2023-07-08T00:30:23;13.65;;;7.28;;
25780;SDS011;13626;48.128;11.628;2023-07-08T00:32:51;12.27;;;7.60;;
25780;SDS011;13626;48.128;11.628;2023-07-08T00:40:46;11.82;;;7.13;;
25780;SDS011;13626;48.128;11.628;2023-07-08T00:43:14;13.15;;;7.53;;
25780;SDS011;13626;48.128;11.628;2023-07-08T00:45:43;12.93;;;6.78;;
25780;SDS011;13626;48.128;11.628;2023-07-08T00:48:28;10.85;;;6.63;;
25780;SDS011;13626;48.128;11.628;2023-07-08T00:50:56;12.18;;;7.20;;
25780;SDS011;13626;48.128;11.628;2023-07-08T00:56:02;9.32;;;6.80;;
25780;SDS011;13626;48.128;11.628;2023-07-08T00:58:32;10.43;;;6.78;;
25780;SDS011;13626;48.128;11.628;2023-07-08T01:01:01;10.73;;;7.53;;
25780;SDS011;13626;48.128;11.628;2023-07-08T01:03:30;12.27;;;7.47;;
25780;SDS011;13626;48.128;11.628;2023-07-08T01:05:58;12.43;;;7.63;;
25780;SDS011;13626;48.128;11.628;2023-07-08T01:08:26;10.48;;;6.93;;
25780;SDS011;13626;48.128;11.628;2023-07-08T01:10:56;10.00;;;6.47;;
25780;SDS011;13626;48.128;11.628;2023-07-08T01:13:26;11.02;;;7.15;;
25780;SDS011;13626;48.128;11.628;2023-07-08T01:15:54;10.90;;;6.80;;
25780;SDS011;13626;48.128;11.628;2023-07-08T01:18:21;13.75;;;7.20;;
25780;SDS011;13626;48.128;11.628;2023-07-08T01:20:50;12.23;;;7.15;;
25780;SDS011;13626;48.128;11.628;2023-07-08T01:23:22;11.48;;;7.38;;
25780;SDS011;13626;48.128;11.628;2023-07-08T01:25:50;12.13;;;6.80;;
25780;SDS011;13626;48.128;11.628;2023-07-08T01:28:17;9.73;;;6.60;;
25780;SDS011;13626;48.128;11.628;2023-07-08T01:30:44;11.07;;;6.53;;
25780;SDS011;13626;48.128;11.628;2023-07-08T01:33:16;12.10;;;7.13;;
25780;SDS011;13626;48.128;11.628;2023-07-08T01:35:44;10.30;;;7.03;;
25780;SDS011;13626;48.128;11.628;2023-07-08T01:38:12;10.23;;;6.97;;
25780;SDS011;13626;48.128;11.628;2023-07-08T01:40:48;12.02;;;7.03;;
25780;SDS011;13626;48.128;11.628;2023-07-08T01:43:15;12.27;;;7.53;;
25780;SDS011;13626;48.128;11.628;2023-07-08T01:45:42;11.00;;;7.07;;
25780;SDS011;13626;48.128;11.628;2023-07-08T01:48:11;10.75;;;7.45;;
25780;SDS011;13626;48.128;11.628;2023-07-08T01:50:40;11.65;;;7.82;;
25780;SDS011;13626;48.128;11.628;2023-07-08T01:53:09;12.35;;;7.47;;
25780;SDS011;13626;48.128;11.628;2023-07-08T01:55:37;11.93;;;7.65;;
25780;SDS011;13626;48.128;11.628;2023-07-08T01:58:04;12.45;;;7.82;;
25780;SDS011;13626;48.128;11.628;2023-07-08T02:00:32;10.73;;;7.20;;
25780;SDS011;13626;48.128;11.628;2023-07-08T02:02:59;13.70;;;7.40;;
25780;SDS011;13626;48.128;11.628;2023-07-08T02:05:26;12.07;;;7.40;;
25780;SDS011;13626;48.128;11.628;2023-07-08T02:07:53;9.68;;;6.75;;
25780;SDS011;13626;48.128;11.628;2023-07-08T02:10:22;10.63;;;7.05;;
25780;SDS011;13626;48.128;11.628;2023-07-08T02:12:51;12.07;;;7.22;;
25780;SDS011;13626;48.128;11.628;2023-07-08T02:15:20;10.88;;;7.13;;
25780;SDS011;13626;48.128;11.628;2023-07-08T02:17:47;13.07;;;7.90;;
25780;SDS011;13626;48.128;11.628;2023-07-08T02:20:15;10.70;;;7.15;;
25780;SDS011;13626;48.128;11.628;2023-07-08T02:22:42;11.93;;;7.18;;
25780;SDS011;13626;48.128;11.628;2023-07-08T02:25:10;12.05;;;7.28;;
25780;SDS011;13626;48.128;11.628;2023-07-08T02:27:37;11.80;;;7.38;;
25780;SDS011;13626;48.128;11.628;2023-07-08T02:30:04;11.40;;;8.00;;
25780;SDS011;13626;48.128;11.628;2023-07-08T02:32:32;12.00;;;7.53;;
25780;SDS011;13626;48.128;11.628;2023-07-08T02:35:02;13.48;;;7.60;;
25780;SDS011;13626;48.128;11.628;2023-07-08T02:37:29;10.77;;;7.07;;
25780;SDS011;13626;48.128;11.628;2023-07-08T02:39:56;11.95;;;7.20;;
25780;SDS011;13626;48.128;11.628;2023-07-08T02:42:24;13.80;;;7.78;;
25780;SDS011;13626;48.128;11.628;2023-07-08T02:44:51;12.98;;;8.25;;
25780;SDS011;13626;48.128;11.628;2023-07-08T02:47:18;11.82;;;7.07;;
25780;SDS011;13626;48.128;11.628;2023-07-08T02:49:45;12.45;;;7.57;;
25780;SDS011;13626;48.128;11.628;2023-07-08T02:52:12;11.18;;;7.53;;
25780;SDS011;13626;48.128;11.628;2023-07-08T02:54:40;12.10;;;7.20;;
25780;SDS011;13626;48.128;11.628;2023-07-08T02:57:07;12.32;;;7.82;;
25780;SDS011;13626;48.128;11.628;2023-07-08T02:59:34;11.05;;;7.00;;
25780;SDS011;13626;48.128;11.628;2023-07-08T03:02:01;12.32;;;7.30;;
25780;SDS011;13626;48.128;11.628;2023-07-08T03:04:28;11.90;;;7.65;;
25780;SDS011;13626;48.128;11.628;2023-07-08T03:06:56;14.18;;;8.38;;
25780;SDS011;13626;48.128;11.628;2023-07-08T03:09:23;11.02;;;7.10;;
25780;SDS011;13626;48.128;11.628;2023-07-08T03:11:50;12.60;;;7.47;;
25780;SDS011;13626;48.128;11.628;2023-07-08T03:14:17;10.20;;;6.70;;
25780;SDS011;13626;48.128;11.628;2023-07-08T03:16:45;11.65;;;7.57;;
25780;SDS011;13626;48.128;11.628;2023-07-08T03:19:12;11.45;;;7.50;;
25780;SDS011;13626;48.128;11.628;2023-07-08T03:21:41;12.30;;;7.60;;
25780;SDS011;13626;48.128;11.628;2023-07-08T03:24:09;12.60;;;7.93;;
25780;SDS011;13626;48.128;11.628;2023-07-08T03:26:38;10.40;;;6.95;;
25780;SDS011;13626;48.128;11.628;2023-07-08T03:29:05;12.43;;;7.57;;
25780;SDS011;13626;48.128;11.628;2023-07-08T03:31:33;12.55;;;7.97;;
25780;SDS011;13626;48.128;11.628;2023-07-08T03:34:00;10.27;;;6.45;;
25780;SDS011;13626;48.128;11.628;2023-07-08T03:36:27;12.00;;;7.60;;
25780;SDS011;13626;48.128;11.628;2023-07-08T03:38:55;10.57;;;7.05;;
25780;SDS011;13626;48.128;11.628;2023-07-08T03:41:23;11.82;;;6.97;;
25780;SDS011;13626;48.128;11.628;2023-07-08T03:43:50;12.18;;;7.22;;
25780;SDS011;13626;48.128;11.628;2023-07-08T03:46:18;11.82;;;6.68;;
25780;SDS011;13626;48.128;11.628;2023-07-08T03:48:47;9.73;;;6.28;;
25780;SDS011;13626;48.128;11.628;2023-07-08T03:51:20;12.38;;;7.35;;
25780;SDS011;13626;48.128;11.628;2023-07-08T03:53:49;11.57;;;7.20;;
25780;SDS011;13626;48.128;11.628;2023-07-08T03:56:17;11.63;;;7.10;;
25780;SDS011;13626;48.128;11.628;2023-07-08T03:58:44;8.93;;;6.30;;
25780;SDS011;13626;48.128;11.628;2023-07-08T04:01:19;9.32;;;6.60;;
25780;SDS011;13626;48.128;11.628;2023-07-08T04:03:47;10.65;;;5.97;;
25780;SDS011;13626;48.128;11.628;2023-07-08T04:06:14;9.05;;;6.63;;
25780;SDS011;13626;48.128;11.628;2023-07-08T04:08:41;8.70;;;6.03;;
25780;SDS011;13626;48.128;11.628;2023-07-08T04:11:11;9.48;;;6.03;;
25780;SDS011;13626;48.128;11.628;2023-07-08T04:13:38;10.38;;;6.45;;
25780;SDS011;13626;48.128;11.628;2023-07-08T04:16:06;10.23;;;6.30;;
25780;SDS011;13626;48.128;11.628;2023-07-08T04:18:34;11.02;;;7.20;;
25780;SDS011;13626;48.128;11.628;2023-07-08T04:21:02;13.02;;;7.03;;
25780;SDS011;13626;48.128;11.628;2023-07-08T04:23:32;9.88;;;6.70;;
25780;SDS011;13626;48.128;11.628;2023-07-08T04:25:59;10.60;;;6.65;;
25780;SDS011;13626;48.128;11.628;2023-07-08T04:28:27;9.93;;;6.18;;
25780;SDS011;13626;48.128;11.628;2023-07-08T04:30:54;9.07;;;6.22;;
25780;SDS011;13626;48.128;11.628;2023-07-08T04:33:21;10.40;;;6.47;;
25780;SDS011;13626;48.128;11.628;2023-07-08T04:35:49;10.95;;;6.75;;
25780;SDS011;13626;48.128;11.628;2023-07-08T04:38:20;10.88;;;6.53;;
25780;SDS011;13626;48.128;11.628;2023-07-08T04:40:48;9.93;;;6.43;;
25780;SDS011;13626;48.128;11.628;2023-07-08T04:43:15;8.57;;;6.03;;
25780;SDS011;13626;48.128;11.628;2023-07-08T04:45:43;11.25;;;6.80;;
25780;SDS011;13626;48.128;11.628;2023-07-08T04:48:11;10.20;;;6.93;;
25780;SDS011;13626;48.128;11.628;2023-07-08T04:50:43;8.75;;;5.95;;
25780;SDS011;13626;48.128;11.628;2023-07-08T04:53:11;11.73;;;7.05;;
25780;SDS011;13626;48.128;11.628;2023-07-08T04:55:42;10.68;;;6.90;;
25780;SDS011;13626;48.128;11.628;2023-07-08T04:58:10;10.35;;;6.50;;
25780;SDS011;13626;48.128;11.628;2023-07-08T05:00:38;10.00;;;6.63;;
25780;SDS011;13626;48.128;11.628;2023-07-08T05:03:05;10.95;;;6.75;;
25780;SDS011;13626;48.128;11.628;2023-07-08T05:05:32;10.70;;;6.95;;
25780;SDS011;13626;48.128;11.628;2023-07-08T05:08:00;9.15;;;6.45;;
25780;SDS011;13626;48.128;11.628;2023-07-08T05:10:27;9.68;;;6.57;;
25780;SDS011;13626;48.128;11.628;2023-07-08T05:12:54;11.65;;;7.35;;
25780;SDS011;13626;48.128;11.628;2023-07-08T05:15:21;10.43;;;7.03;;
25780;SDS011;13626;48.128;11.628;2023-07-08T05:17:49;11.23;;;7.15;;
25780;SDS011;13626;48.128;11.628;2023-07-08T05:20:17;11.40;;;7.15;;
25780;SDS011;13626;48.128;11.628;2023-07-08T05:22:45;11.60;;;7.43;;
25780;SDS011;13626;48.128;11.628;2023-07-08T05:25:12;13.20;;;7.25;;
25780;SDS011;13626;48.128;11.628;2023-07-08T05:27:40;11.38;;;7.03;;
25780;SDS011;13626;48.128;11.628;2023-07-08T05:30:08;11.00;;;7.18;;
25780;SDS011;13626;48.128;11.628;2023-07-08T05:32:37;10.32;;;7.28;;
25780;SDS011;13626;48.128;11.628;2023-07-08T05:35:05;10.07;;;7.10;;
25780;SDS011;13626;48.128;11.628;2023-07-08T05:37:35;13.82;;;7.45;;
25780;SDS011;13626;48.128;11.628;2023-07-08T05:40:02;11.10;;;7.70;;
25780;SDS011;13626;48.128;11.628;2023-07-08T05:42:30;13.48;;;8.40;;
25780;SDS011;13626;48.128;11.628;2023-07-08T05:44:58;11.65;;;7.70;;
25780;SDS011;13626;48.128;11.628;2023-07-08T05:47:25;14.85;;;7.80;;
25780;SDS011;13626;48.128;11.628;2023-07-08T05:49:52;10.57;;;7.68;;
25780;SDS011;13626;48.128;11.628;2023-07-08T05:52:20;10.27;;;7.43;;
25780;SDS011;13626;48.128;11.628;2023-07-08T05:54:47;11.73;;;8.02;;
25780;SDS011;13626;48.128;11.628;2023-07-08T05:57:14;12.15;;;7.43;;
25780;SDS011;13626;48.128;11.628;2023-07-08T05:59:41;15.38;;;8.07;;
25780;SDS011;13626;48.128;11.628;2023-07-08T06:02:10;10.95;;;7.65;;
25780;SDS011;13626;48.128;11.628;2023-07-08T06:04:38;11.52;;;7.75;;
25780;SDS011;13626;48.128;11.628;2023-07-08T06:07:05;10.50;;;7.75;;
25780;SDS011;13626;48.128;11.628;2023-07-08T06:09:33;12.43;;;9.38;;
25780;SDS011;13626;48.128;11.628;2023-07-08T06:12:00;13.18;;;7.75;;
25780;SDS011;13626;48.128;11.628;2023-07-08T06:14:27;13.73;;;8.15;;
25780;SDS011;13626;48.128;11.628;2023-07-08T06:16:55;11.32;;;7.78;;
25780;SDS011;13626;48.128;11.628;2023-07-08T06:19:22;13.43;;;8.27;;
25780;SDS011;13626;48.128;11.628;2023-07-08T06:21:49;12.65;;;8.13;;
25780;SDS011;13626;48.128;11.628;2023-07-08T06:24:16;11.30;;;7.63;;
25780;SDS011;13626;48.128;11.628;2023-07-08T06:26:44;12.57;;;7.97;;
25780;SDS011;13626;48.128;11.628;2023-07-08T06:29:24;14.60;;;8.85;;
25780;SDS011;13626;48.128;11.628;2023-07-08T06:31:52;12.80;;;8.05;;
25780;SDS011;13626;48.128;11.628;2023-07-08T06:34:20;12.55;;;8.02;;
25780;SDS011;13626;48.128;11.628;2023-07-08T06:36:49;13.57;;;8.02;;
25780;SDS011;13626;48.128;11.628;2023-07-08T06:39:17;13.75;;;8.32;;
25780;SDS011;13626;48.128;11.628;2023-07-08T06:41:44;12.38;;;8.32;;
25780;SDS011;13626;48.128;11.628;2023-07-08T06:44:12;14.43;;;9.00;;
25780;SDS011;13626;48.128;11.628;2023-07-08T06:46:39;11.68;;;8.43;;
25780;SDS011;13626;48.128;11.628;2023-07-08T06:49:06;11.07;;;8.15;;
25780;SDS011;13626;48.128;11.628;2023-07-08T06:51:35;10.40;;;7.70;;
25780;SDS011;13626;48.128;11.628;2023-07-08T06:54:03;13.65;;;9.23;;
25780;SDS011;13626;48.128;11.628;2023-07-08T06:56:38;13.68;;;8.45;;
25780;SDS011;13626;48.128;11.628;2023-07-08T06:59:06;11.70;;;8.32;;
25780;SDS011;13626;48.128;11.628;2023-07-08T07:01:33;17.25;;;8.98;;
25780;SDS011;13626;48.128;11.628;2023-07-08T07:04:00;13.32;;;8.82;;
25780;SDS011;13626;48.128;11.628;2023-07-08T07:06:28;11.43;;;8.15;;
25780;SDS011;13626;48.128;11.628;2023-07-08T07:08:55;9.98;;;7.93;;
25780;SDS011;13626;48.128;11.628;2023-07-08T07:11:22;13.13;;;7.40;;
25780;SDS011;13626;48.128;11.628;2023-07-08T07:13:50;11.45;;;8.30;;
25780;SDS011;13626;48.128;11.628;2023-07-08T07:16:17;13.07;;;7.63;;
25780;SDS011;13626;48.128;11.628;2023-07-08T07:18:44;13.50;;;8.45;;
25780;SDS011;13626;48.128;11.628;2023-07-08T07:21:11;11.43;;;8.30;;
25780;SDS011;13626;48.128;11.628;2023-07-08T07:23:39;14.18;;;8.57;;
25780;SDS011;13626;48.128;11.628;2023-07-08T07:26:06;11.57;;;8.40;;
25780;SDS011;13626;48.128;11.628;2023-07-08T07:28:34;12.23;;;8.40;;
25780;SDS011;13626;48.128;11.628;2023-07-08T07:31:01;12.45;;;8.38;;
25780;SDS011;13626;48.128;11.628;2023-07-08T07:33:29;12.93;;;8.93;;
25780;SDS011;13626;48.128;11.628;2023-07-08T07:35:57;11.18;;;8.15;;
25780;SDS011;13626;48.128;11.628;2023-07-08T07:38:25;13.68;;;8.57;;
25780;SDS011;13626;48.128;11.628;2023-07-08T07:40:55;11.32;;;8.73;;
25780;SDS011;13626;48.128;11.628;2023-07-08T07:43:22;12.02;;;8.20;;
25780;SDS011;13626;48.128;11.628;2023-07-08T07:45:53;12.75;;;8.63;;
25780;SDS011;13626;48.128;11.628;2023-07-08T07:48:20;11.52;;;8.43;;
25780;SDS011;13626;48.128;11.628;2023-07-08T07:50:47;11.20;;;8.55;;
25780;SDS011;13626;48.128;11.628;2023-07-08T07:53:16;10.65;;;8.40;;
25780;SDS011;13626;48.128;11.628;2023-07-08T07:55:43;11.63;;;8.65;;
25780;SDS011;13626;48.128;11.628;2023-07-08T07:58:10;12.93;;;8.65;;
25780;SDS011;13626;48.128;11.628;2023-07-08T08:00:38;14.77;;;8.93;;
25780;SDS011;13626;48.128;11.628;2023-07-08T08:03:05;13.25;;;8.48;;
25780;SDS011;13626;48.128;11.628;2023-07-08T08:05:33;11.45;;;8.40;;
25780;SDS011;13626;48.128;11.628;2023-07-08T08:08:00;14.32;;;7.95;;
25780;SDS011;13626;48.128;11.628;2023-07-08T08:10:30;12.32;;;8.65;;
25780;SDS011;13626;48.128;11.628;2023-07-08T08:12:59;11.65;;;8.57;;
25780;SDS011;13626;48.128;11.628;2023-07-08T08:15:26;10.60;;;7.88;;
25780;SDS011;13626;48.128;11.628;2023-07-08T08:17:53;11.98;;;9.25;;
25780;SDS011;13626;48.128;11.628;2023-07-08T08:20:22;11.15;;;8.68;;
25780;SDS011;13626;48.128;11.628;2023-07-08T08:22:50;10.95;;;8.57;;
25780;SDS011;13626;48.128;11.628;2023-07-08T08:25:18;14.05;;;9.00;;
25780;SDS011;13626;48.128;11.628;2023-07-08T08:27:46;11.02;;;9.10;;
25780;SDS011;13626;48.128;11.628;2023-07-08T08:30:13;10.90;;;8.18;;
25780;SDS011;13626;48.128;11.628;2023-07-08T08:32:40;14.95;;;8.90;;
25780;SDS011;13626;48.128;11.628;2023-07-08T08:35:07;10.32;;;8.13;;
25780;SDS011;13626;48.128;11.628;2023-07-08T08:37:35;11.07;;;8.05;;
25780;SDS011;13626;48.128;11.628;2023-07-08T08:40:02;13.77;;;9.05;;
25780;SDS011;13626;48.128;11.628;2023-07-08T08:42:30;12.27;;;8.70;;
25780;SDS011;13626;48.128;11.628;2023-07-08T08:45:00;9.50;;;8.02;;
25780;SDS011;13626;48.128;11.628;2023-07-08T08:47:35;11.35;;;8.48;;
25780;SDS011;13626;48.128;11.628;2023-07-08T08:52:46;11.05;;;8.40;;
25780;SDS011;13626;48.128;11.628;2023-07-08T08:55:13;11.93;;;8.77;;
25780;SDS011;13626;48.128;11.628;2023-07-08T08:57:50;11.93;;;8.63;;
25780;SDS011;13626;48.128;11.628;2023-07-08T09:00:26;11.00;;;8.85;;
25780;SDS011;13626;48.128;11.628;2023-07-08T09:03:04;11.85;;;8.73;;
25780;SDS011;13626;48.128;11.628;2023-07-08T09:05:34;12.38;;;8.93;;
25780;SDS011;13626;48.128;11.628;2023-07-08T09:08:05;13.85;;;8.27;;
25780;SDS011;13626;48.128;11.628;2023-07-08T09:10:45;10.88;;;7.63;;
25780;SDS011;13626;48.128;11.628;2023-07-08T09:13:22;10.32;;;7.95;;
25780;SDS011;13626;48.128;11.628;2023-07-08T09:15:57;11.20;;;7.63;;
25780;SDS011;13626;48.128;11.628;2023-07-08T09:18:27;12.43;;;7.63;;
25780;SDS011;13626;48.128;11.628;2023-07-08T09:20:57;10.95;;;8.02;;
25780;SDS011;13626;48.128;11.628;2023-07-08T09:23:26;11.07;;;7.75;;
25780;SDS011;13626;48.128;11.628;2023-07-08T09:28:21;14.70;;;7.88;;
25780;SDS011;13626;48.128;11.628;2023-07-08T09:30:48;9.15;;;7.38;;
25780;SDS011;13626;48.128;11.628;2023-07-08T09:33:18;10.82;;;7.60;;
25780;SDS011;13626;48.128;11.628;2023-07-08T09:35:47;12.07;;;7.15;;
25780;SDS011;13626;48.128;11.628;2023-07-08T09:38:15;10.07;;;7.55;;
25780;SDS011;13626;48.128;11.628;2023-07-08T09:40:46;10.52;;;7.97;;
25780;SDS011;13626;48.128;11.628;2023-07-08T09:45:44;10.75;;;7.20;;
25780;SDS011;13626;48.128;11.628;2023-07-08T09:48:16;10.52;;;7.70;;
25780;SDS011;13626;48.128;11.628;2023-07-08T09:50:44;13.65;;;7.55;;
25780;SDS011;13626;48.128;11.628;2023-07-08T09:53:11;11.68;;;8.57;;
25780;SDS011;13626;48.128;11.628;2023-07-08T09:55:40;12.15;;;7.13;;
25780;SDS011;13626;48.128;11.628;2023-07-08T09:58:09;9.50;;;7.18;;
25780;SDS011;13626;48.128;11.628;2023-07-08T10:00:38;9.27;;;7.13;;
25780;SDS011;13626;48.128;11.628;2023-07-08T10:03:12;10.02;;;6.93;;
25780;SDS011;13626;48.128;11.628;2023-07-08T10:05:45;11.15;;;6.85;;
25780;SDS011;13626;48.128;11.628;2023-07-08T10:10:43;9.57;;;7.07;;
25780;SDS011;13626;48.128;11.628;2023-07-08T10:16:00;11.30;;;7.53;;
25780;SDS011;13626;48.128;11.628;2023-07-08T10:18:27;11.43;;;7.43;;
25780;SDS011;13626;48.128;11.628;2023-07-08T10:26:40;11.85;;;7.13;;
25780;SDS011;13626;48.128;11.628;2023-07-08T10:30:12;10.75;;;6.90;;
25780;SDS011;13626;48.128;11.628;2023-07-08T10:32:08;11.30;;;7.10;;
25780;SDS011;13626;48.128;11.628;2023-07-08T10:34:42;9.02;;;7.00;;
25780;SDS011;13626;48.128;11.628;2023-07-08T10:45:12;14.50;;;6.70;;
25780;SDS011;13626;48.128;11.628;2023-07-08T10:50:21;8.63;;;6.50;;
25780;SDS011;13626;48.128;11.628;2023-07-08T10:55:29;8.93;;;6.10;;
25780;SDS011;13626;48.128;11.628;2023-07-08T10:58:07;8.82;;;5.57;;
25780;SDS011;13626;48.128;11.628;2023-07-08T11:08:38;8.35;;;5.88;;
25780;SDS011;13626;48.128;11.628;2023-07-08T11:11:11;7.82;;;5.50;;
25780;SDS011;13626;48.128;11.628;2023-07-08T11:13:52;7.20;;;5.75;;
25780;SDS011;13626;48.128;11.628;2023-07-08T11:16:30;8.18;;;6.05;;
25780;SDS011;13626;48.128;11.628;2023-07-08T11:19:04;11.13;;;6.22;;
25780;SDS011;13626;48.128;11.628;2023-07-08T11:21:37;9.50;;;5.82;;
25780;SDS011;13626;48.128;11.628;2023-07-08T11:24:12;9.20;;;6.38;;
25780;SDS011;13626;48.128;11.628;2023-07-08T11:27:01;7.88;;;5.90;;
25780;SDS011;13626;48.128;11.628;2023-07-08T11:29:39;7.80;;;6.20;;
25780;SDS011;13626;48.128;11.628;2023-07-08T11:32:09;9.60;;;6.18;;
25780;SDS011;13626;48.128;11.628;2023-07-08T11:34:39;11.50;;;6.47;;
25780;SDS011;13626;48.128;11.628;2023-07-08T11:37:07;10.07;;;6.25;;
25780;SDS011;13626;48.128;11.628;2023-07-08T11:39:39;7.10;;;5.88;;
25780;SDS011;13626;48.128;11.628;2023-07-08T11:44:44;8.93;;;5.95;;
25780;SDS011;13626;48.128;11.628;2023-07-08T11:47:17;7.63;;;6.40;;
25780;SDS011;13626;48.128;11.628;2023-07-08T11:49:46;7.70;;;6.60;;
25780;SDS011;13626;48.128;11.628;2023-07-08T11:52:16;9.95;;;6.53;;
25780;SDS011;13626;48.128;11.628;2023-07-08T11:54:47;9.45;;;6.50;;
25780;SDS011;13626;48.128;11.628;2023-07-08T11:57:17;9.93;;;6.32;;
25780;SDS011;13626;48.128;11.628;2023-07-08T11:59:46;9.68;;;6.38;;
25780;SDS011;13626;48.128;11.628;2023-07-08T12:02:14;8.80;;;6.38;;
25780;SDS011;13626;48.128;11.628;2023-07-08T12:07:50;8.45;;;6.15;;
25780;SDS011;13626;48.128;11.628;2023-07-08T12:12:51;10.38;;;6.78;;
25780;SDS011;13626;48.128;11.628;2023-07-08T12:15:25;7.68;;;6.38;;
25780;SDS011;13626;48.128;11.628;2023-07-08T12:20:43;11.35;;;6.53;;
25780;SDS011;13626;48.128;11.628;2023-07-08T12:23:18;8.73;;;6.53;;
25780;SDS011;13626;48.128;11.628;2023-07-08T12:25:48;9.70;;;6.30;;
25780;SDS011;13626;48.128;11.628;2023-07-08T12:28:16;10.20;;;6.85;;
25780;SDS011;13626;48.128;11.628;2023-07-08T12:30:44;8.15;;;6.50;;
25780;SDS011;13626;48.128;11.628;2023-07-08T12:33:13;8.98;;;6.10;;
25780;SDS011;13626;48.128;11.628;2023-07-08T12:35:41;8.80;;;6.32;;
25780;SDS011;13626;48.128;11.628;2023-07-08T12:38:19;7.85;;;6.13;;
25780;SDS011;13626;48.128;11.628;2023-07-08T12:40:48;8.43;;;6.13;;
25780;SDS011;13626;48.128;11.628;2023-07-08T12:43:16;9.32;;;6.88;;
25780;SDS011;13626;48.128;11.628;2023-07-08T12:45:44;11.02;;;5.97;;
25780;SDS011;13626;48.128;11.628;2023-07-08T12:48:11;13.07;;;7.15;;
25780;SDS011;13626;48.128;11.628;2023-07-08T12:50:39;7.50;;;6.20;;
25780;SDS011;13626;48.128;11.628;2023-07-08T12:53:06;9.15;;;6.38;;
25780;SDS011;13626;48.128;11.628;2023-07-08T12:55:37;10.52;;;6.47;;
25780;SDS011;13626;48.128;11.628;2023-07-08T12:58:04;8.32;;;6.38;;
25780;SDS011;13626;48.128;11.628;2023-07-08T13:00:34;8.85;;;6.25;;
25780;SDS011;13626;48.128;11.628;2023-07-08T13:03:19;8.80;;;6.60;;
25780;SDS011;13626;48.128;11.628;2023-07-08T13:05:48;10.52;;;6.57;;
25780;SDS011;13626;48.128;11.628;2023-07-08T13:08:16;9.15;;;6.65;;
25780;SDS011;13626;48.128;11.628;2023-07-08T13:10:44;7.57;;;6.30;;
25780;SDS011;13626;48.128;11.628;2023-07-08T13:13:12;7.88;;;6.28;;
25780;SDS011;13626;48.128;11.628;2023-07-08T13:15:40;10.13;;;7.10;;
25780;SDS011;13626;48.128;11.628;2023-07-08T13:18:18;9.80;;;7.00;;
25780;SDS011;13626;48.128;11.628;2023-07-08T13:20:47;10.82;;;6.82;;
25780;SDS011;13626;48.128;11.628;2023-07-08T13:23:16;8.73;;;6.95;;
25780;SDS011;13626;48.128;11.628;2023-07-08T13:25:43;10.65;;;7.07;;
25780;SDS011;13626;48.128;11.628;2023-07-08T13:28:17;9.60;;;6.65;;
25780;SDS011;13626;48.128;11.628;2023-07-08T13:33:19;13.57;;;6.45;;
25780;SDS011;13626;48.128;11.628;2023-07-08T13:35:46;11.43;;;7.05;;
25780;SDS011;13626;48.128;11.628;2023-07-08T13:38:14;10.80;;;6.60;;
25780;SDS011;13626;48.128;11.628;2023-07-08T13:40:44;7.65;;;5.75;;
25780;SDS011;13626;48.128;11.628;2023-07-08T13:43:12;11.55;;;7.00;;
25780;SDS011;13626;48.128;11.628;2023-07-08T13:45:43;6.90;;;5.80;;
25780;SDS011;13626;48.128;11.628;2023-07-08T13:50:51;8.20;;;5.90;;
25780;SDS011;13626;48.128;11.628;2023-07-08T13:53:23;7.88;;;7.00;;
25780;SDS011;13626;48.128;11.628;2023-07-08T13:55:58;9.77;;;5.97;;
25780;SDS011;13626;48.128;11.628;2023-07-08T13:58:26;9.15;;;6.75;;
25780;SDS011;13626;48.128;11.628;2023-07-08T14:00:55;8.45;;;6.47;;
25780;SDS011;13626;48.128;11.628;2023-07-08T14:03:22;9.80;;;6.00;;
25780;SDS011;13626;48.128;11.628;2023-07-08T14:05:51;9.25;;;6.28;;
25780;SDS011;13626;48.128;11.628;2023-07-08T14:08:18;6.80;;;5.68;;
25780;SDS011;13626;48.128;11.628;2023-07-08T14:10:45;10.15;;;6.22;;
25780;SDS011;13626;48.128;11.628;2023-07-08T14:13:13;8.70;;;6.50;;
25780;SDS011;13626;48.128;11.628;2023-07-08T14:15:41;9.60;;;6.60;;
25780;SDS011;13626;48.128;11.628;2023-07-08T14:18:09;8.73;;;6.40;;
25780;SDS011;13626;48.128;11.628;2023-07-08T14:20:37;6.88;;;5.95;;
25780;SDS011;13626;48.128;11.628;2023-07-08T14:23:04;10.82;;;6.80;;
25780;SDS011;13626;48.128;11.628;2023-07-08T14:25:31;8.27;;;6.47;;
25780;SDS011;13626;48.128;11.628;2023-07-08T14:27:58;14.57;;;6.22;;
25780;SDS011;13626;48.128;11.628;2023-07-08T14:30:27;8.98;;;5.90;;
25780;SDS011;13626;48.128;11.628;2023-07-08T14:32:54;7.20;;;5.38;;
25780;SDS011;13626;48.128;11.628;2023-07-08T14:35:25;8.52;;;5.90;;
25780;SDS011;13626;48.128;11.628;2023-07-08T14:37:53;9.98;;;6.22;;
25780;SDS011;13626;48.128;11.628;2023-07-08T14:40:23;9.98;;;6.25;;
25780;SDS011;13626;48.128;11.628;2023-07-08T14:42:56;9.57;;;6.35;;
25780;SDS011;13626;48.128;11.628;2023-07-08T14:45:25;7.75;;;5.57;;
25780;SDS011;13626;48.128;11.628;2023-07-08T14:47:52;8.55;;;6.07;;
25780;SDS011;13626;48.128;11.628;2023-07-08T14:50:19;9.98;;;5.72;;
25780;SDS011;13626;48.128;11.628;2023-07-08T14:52:47;8.52;;;5.82;;
25780;SDS011;13626;48.128;11.628;2023-07-08T14:55:14;10.30;;;5.78;;
25780;SDS011;13626;48.128;11.628;2023-07-08T14:57:42;9.57;;;6.15;;
25780;SDS011;13626;48.128;11.628;2023-07-08T15:00:15;8.93;;;5.93;;
25780;SDS011;13626;48.128;11.628;2023-07-08T15:02:43;8.82;;;6.63;;
25780;SDS011;13626;48.128;11.628;2023-07-08T15:05:14;11.65;;;6.97;;
25780;SDS011;13626;48.128;11.628;2023-07-08T15:07:42;10.63;;;6.32;;
25780;SDS011;13626;48.128;11.628;2023-07-08T15:10:09;10.73;;;6.18;;
25780;SDS011;13626;48.128;11.628;2023-07-08T15:12:36;11.63;;;6.20;;
25780;SDS011;13626;48.128;11.628;2023-07-08T15:15:04;7.15;;;5.72;;
25780;SDS011;13626;48.128;11.628;2023-07-08T15:17:31;8.20;;;5.70;;
25780;SDS011;13626;48.128;11.628;2023-07-08T15:19:58;9.15;;;6.32;;
25780;SDS011;13626;48.128;11.628;2023-07-08T15:22:27;12.27;;;5.97;;
25780;SDS011;13626;48.128;11.628;2023-07-08T15:24:54;8.35;;;6.20;;
25780;SDS011;13626;48.128;11.628;2023-07-08T15:27:21;7.93;;;6.20;;
25780;SDS011;13626;48.128;11.628;2023-07-08T15:29:49;10.20;;;6.07;;
25780;SDS011;13626;48.128;11.628;2023-07-08T15:32:16;10.13;;;6.50;;
25780;SDS011;13626;48.128;11.628;2023-07-08T15:35:13;8.55;;;6.28;;
25780;SDS011;13626;48.128;11.628;2023-07-08T15:37:41;8.55;;;6.20;;
25780;SDS011;13626;48.128;11.628;2023-07-08T15:40:09;8.93;;;6.30;;
25780;SDS011;13626;48.128;11.628;2023-07-08T15:42:37;11.02;;;6.05;;